Time;durP1;ratioP1;P1;durP2;ratioP2;P2;SDS_P1;SDS_P2;PMS_P1;PMS_P2;Temp;Humidity;BMP_temperature;BMP_pressure;BME280_temperature;BME280_humidity;BME280_pressure;Samples;Min_cycle;Max_cycle;Signal;HPM_P1;HPM_P2
2023/05/11 00:02:21;;;;;;;;;12.60;12.40;;;;;14.21;41.76;98945.59;5976757;29;96591;-61
2023/05/11 00:05:24;;;;;;;;;17.25;14.25;;;;;14.17;41.68;98947.94;5976848;29;96939;-62
2023/05/11 00:08:28;;;;;;;;;12.25;11.50;;;;;14.07;42.03;98925.28;5975127;29;96545;-62
2023/05/11 00:11:31;;;;;;;;;14.00;13.00;;;;;14.14;41.80;98944.91;5959429;29;97302;-62
2023/05/11 00:14:36;;;;;;;;;10.20;9.20;;;;;14.05;42.43;98951.78;5962151;29;97279;-62
2023/05/11 00:17:39;;;;;;;;;13.50;12.00;;;;;14.05;41.97;98946.38;5976376;29;96464;-62
2023/05/11 00:20:42;;;;;;;;;10.60;9.80;;;;;14.06;41.86;98943.44;5979399;29;96548;-62
2023/05/11 00:23:46;;;;;;;;;16.40;16.40;;;;;13.88;42.67;98946.31;5967239;29;97494;-62
2023/05/11 00:26:49;;;;;;;;;12.50;12.25;;;;;13.91;42.38;98945.03;5980120;29;96559;-62
2023/05/11 00:29:54;;;;;;;;;16.20;14.80;;;;;13.86;42.27;98943.03;5976178;29;97286;-62
2023/05/11 00:32:57;;;;;;;;;12.00;12.00;;;;;13.84;42.34;98942.44;5975937;29;96455;-62
2023/05/11 00:36:00;;;;;;;;;14.00;13.40;;;;;13.83;42.56;98941.63;5968688;29;96443;-62
2023/05/11 00:39:04;;;;;;;;;13.00;12.00;;;;;13.82;42.69;98937.28;5982050;29;96327;-62
2023/05/11 00:42:07;;;;;;;;;11.60;11.20;;;;;13.70;43.03;98943.78;5974220;29;97541;-62
2023/05/11 00:45:12;;;;;;;;;13.00;13.00;;;;;13.80;42.69;98938.56;5956115;29;96404;-62
2023/05/11 00:48:16;;;;;;;;;15.40;14.40;;;;;13.77;42.71;98950.72;5964562;29;96440;-62
2023/05/11 00:51:20;;;;;;;;;12.00;11.00;;;;;13.71;42.79;98931.91;5963466;29;96323;-62
2023/05/11 00:54:23;;;;;;;;;13.67;12.00;;;;;13.83;42.68;98936.19;5974447;29;96396;-62
2023/05/11 00:57:29;;;;;;;;;14.00;12.00;;;;;13.79;42.55;98926.91;5942449;29;97289;-62
2023/05/11 01:00:35;;;;;;;;;13.00;12.00;;;;;13.73;43.20;98927.88;5974989;29;96288;-62
2023/05/11 01:03:39;;;;;;;;;12.25;12.00;;;;;13.74;42.67;98926.81;5975914;29;96400;-62
2023/05/11 01:06:51;;;;;;;;;14.20;13.00;;;;;13.69;42.90;98932.13;5961828;29;97387;-62
2023/05/11 01:10:04;;;;;;;;;14.80;11.20;;;;;13.59;43.09;98933.81;5966042;29;96297;-62
2023/05/11 01:13:17;;;;;;;;;14.00;13.00;;;;;13.53;43.78;98937.50;5974107;29;96290;-62
2023/05/11 01:16:24;;;;;;;;;12.00;11.00;;;;;13.37;43.76;98937.16;5958949;29;96680;-62
2023/05/11 01:19:42;;;;;;;;;12.60;12.60;;;;;13.40;43.92;98944.81;5958378;29;96434;-62
2023/05/11 01:23:07;;;;;;;;;13.00;11.00;;;;;13.38;43.70;98946.13;5973917;29;96508;-62
2023/05/11 01:26:38;;;;;;;;;12.00;11.00;;;;;13.33;43.66;98941.41;5973193;29;96782;-62
2023/05/11 01:29:50;;;;;;;;;15.25;13.50;;;;;13.32;43.71;98944.34;5957857;29;96763;-62
2023/05/11 01:32:59;;;;;;;;;13.00;12.00;;;;;13.34;43.73;98945.75;5970475;29;96536;-62
2023/05/11 01:36:06;;;;;;;;;13.40;13.00;;;;;13.28;43.87;98941.31;5956283;29;96463;-62
2023/05/11 01:39:12;;;;;;;;;13.25;12.00;;;;;13.24;44.21;98942.03;5971228;29;96334;-62
2023/05/11 01:42:21;;;;;;;;;12.40;11.40;;;;;13.21;44.42;98947.88;5972009;29;96765;-62
2023/05/11 01:45:27;;;;;;;;;15.00;13.00;;;;;13.13;44.36;98934.72;5973137;29;96996;-62
2023/05/11 01:48:38;;;;;;;;;15.00;12.40;;;;;13.07;44.61;98936.47;5968798;29;97542;-62
2023/05/11 01:51:43;;;;;;;;;12.40;11.40;;;;;13.09;44.84;98934.34;5965814;29;96391;-62
2023/05/11 01:54:49;;;;;;;;;16.50;15.25;;;;;13.08;44.81;98935.41;5956930;29;96640;-62
2023/05/11 01:57:55;;;;;;;;;12.00;12.00;;;;;13.08;44.69;98942.69;5957774;29;96417;-62
2023/05/11 02:01:01;;;;;;;;;13.40;11.40;;;;;13.08;44.50;98942.69;5971865;29;97095;-62
2023/05/11 02:04:09;;;;;;;;;15.40;15.40;;;;;13.08;44.59;98943.53;5955787;29;96957;-62
2023/05/11 02:07:15;;;;;;;;;12.80;12.20;;;;;13.06;44.89;98948.34;5932669;29;96888;-62
2023/05/11 02:10:19;;;;;;;;;13.80;12.20;;;;;13.01;44.73;98949.06;5977591;29;96453;-62
2023/05/11 02:13:27;;;;;;;;;14.40;13.00;;;;;13.02;44.44;98958.00;5971945;29;98135;-62
2023/05/11 02:16:32;;;;;;;;;11.60;11.60;;;;;12.97;44.86;98952.47;5971755;29;96633;-62
2023/05/11 02:19:38;;;;;;;;;10.00;9.80;;;;;12.88;44.74;98945.75;5964514;29;96811;-62
2023/05/11 02:22:44;;;;;;;;;14.00;13.00;;;;;12.76;45.26;98950.34;5957638;29;96657;-62
2023/05/11 02:25:49;;;;;;;;;12.00;11.67;;;;;12.75;45.16;98951.41;5963229;29;98263;-62
2023/05/11 02:28:52;;;;;;;;;12.00;11.60;;;;;12.77;45.02;98947.41;5973943;29;96647;-62
2023/05/11 02:32:03;;;;;;;;;15.00;13.40;;;;;12.80;45.11;98946.13;5962844;29;97276;-62
2023/05/11 02:35:15;;;;;;;;;12.50;11.50;;;;;12.73;45.09;98950.81;5971213;29;96445;-62
2023/05/11 02:38:21;;;;;;;;;12.60;12.60;;;;;12.71;44.99;98953.75;5956311;29;96611;-62
2023/05/11 02:41:28;;;;;;;;;11.00;10.00;;;;;12.73;45.43;98950.81;5970130;29;97251;-62
2023/05/11 02:44:37;;;;;;;;;13.60;12.60;;;;;12.78;44.87;98948.22;5961106;29;97112;-62
2023/05/11 02:47:45;;;;;;;;;13.00;11.60;;;;;12.75;45.08;98956.81;5969394;29;96566;-62
2023/05/11 02:50:56;;;;;;;;;13.00;12.40;;;;;12.67;45.33;98954.44;5972375;29;96402;-62
2023/05/11 02:54:07;;;;;;;;;11.60;11.00;;;;;12.62;45.41;98955.16;5955960;29;96845;-62
2023/05/11 02:57:13;;;;;;;;;15.00;13.00;;;;;12.58;45.54;98959.38;5971726;29;96382;-62
2023/05/11 03:00:17;;;;;;;;;12.60;11.60;;;;;12.55;45.89;98949.88;5947341;29;97320;-62
2023/05/11 03:03:25;;;;;;;;;12.00;11.00;;;;;12.52;45.67;98952.19;5973297;29;96797;-62
2023/05/11 03:06:30;;;;;;;;;14.40;13.40;;;;;12.49;45.70;98958.06;5961339;29;97287;-62
2023/05/11 03:09:34;;;;;;;;;10.40;10.40;;;;;12.41;45.75;98955.72;5955158;29;97488;-62
2023/05/11 03:12:38;;;;;;;;;13.60;11.00;;;;;12.46;45.76;98953.94;5963509;29;96417;-62
2023/05/11 03:15:43;;;;;;;;;14.00;13.00;;;;;12.48;45.82;98957.25;5969795;29;96793;-62
2023/05/11 03:18:48;;;;;;;;;9.60;9.60;;;;;12.50;45.85;98960.56;5952947;29;97144;-62
2023/05/11 03:21:54;;;;;;;;;9.75;9.75;;;;;12.53;45.91;98962.78;5950879;29;96738;-62
2023/05/11 03:24:58;;;;;;;;;8.00;8.00;;;;;12.54;45.92;98964.44;5969671;29;97538;-62
2023/05/11 03:28:03;;;;;;;;;11.20;9.60;;;;;12.51;46.18;98961.38;5962748;29;97826;-62
2023/05/11 03:31:08;;;;;;;;;9.20;9.20;;;;;12.47;46.35;98966.41;5963799;29;98029;-62
2023/05/11 03:34:12;;;;;;;;;11.00;10.00;;;;;12.49;46.32;98966.19;5968764;29;96512;-62
2023/05/11 03:37:20;;;;;;;;;11.00;11.00;;;;;12.51;46.20;98969.50;5943750;29;96777;-62
2023/05/11 03:40:26;;;;;;;;;11.00;10.40;;;;;12.47;46.46;98961.00;5969086;29;97682;-62
2023/05/11 03:43:34;;;;;;;;;12.00;11.00;;;;;12.51;46.47;98967.59;5967043;29;96793;-62
2023/05/11 03:46:39;;;;;;;;;12.80;11.20;;;;;12.54;46.29;98966.31;5962372;29;96735;-62
2023/05/11 03:49:46;;;;;;;;;13.00;12.40;;;;;12.58;46.45;98970.19;5969771;29;96236;-62
2023/05/11 03:52:52;;;;;;;;;13.00;11.00;;;;;12.64;46.44;98971.16;5951410;29;96621;-62
2023/05/11 03:55:56;;;;;;;;;11.40;11.00;;;;;12.60;46.18;98968.09;5952049;29;97179;-62
2023/05/11 03:58:59;;;;;;;;;10.00;10.00;;;;;12.69;46.43;98971.28;5952695;29;97330;-62
2023/05/11 04:02:03;;;;;;;;;11.00;11.00;;;;;12.67;46.43;98973.38;5965178;29;97499;-62
2023/05/11 04:05:07;;;;;;;;;13.00;11.50;;;;;12.86;46.01;98975.75;5963166;29;96357;-62
2023/05/11 04:08:13;;;;;;;;;13.20;11.60;;;;;12.96;45.55;98976.00;5981577;29;96354;-62
2023/05/11 04:11:16;;;;;;;;;15.00;15.00;;;;;12.52;45.80;98946.78;5973132;29;97563;-62
2023/05/11 04:14:20;;;;;;;;;10.40;9.20;;;;;13.02;45.42;98982.34;5971086;29;97924;-62
2023/05/11 04:17:23;;;;;;;;;14.00;13.40;;;;;13.07;45.08;98979.78;5967407;29;96568;-62
2023/05/11 04:20:26;;;;;;;;;13.00;12.00;;;;;13.11;44.80;98972.84;5972940;29;97173;-62
2023/05/11 04:23:31;;;;;;;;;10.00;10.00;;;;;13.09;44.86;98985.78;5974347;29;97643;-62
2023/05/11 04:26:34;;;;;;;;;13.00;11.25;;;;;13.16;44.83;98985.69;5974290;29;96417;-62
2023/05/11 04:29:38;;;;;;;;;16.00;15.00;;;;;13.25;44.72;98985.09;5971452;29;96553;-62
2023/05/11 04:32:41;;;;;;;;;15.00;14.00;;;;;13.40;44.63;98987.31;5978398;29;96646;-60
2023/05/11 04:35:45;;;;;;;;;11.00;10.00;;;;;13.58;44.23;98986.34;5985544;29;96385;-61
2023/05/11 04:38:51;;;;;;;;;11.80;11.20;;;;;13.66;43.89;98980.56;5983928;29;96593;-61
2023/05/11 04:41:55;;;;;;;;;15.00;14.00;;;;;13.76;43.66;98975.34;5969304;29;96906;-61
2023/05/11 04:44:59;;;;;;;;;10.25;10.25;;;;;13.92;43.39;98981.91;5983543;29;97247;-60
2023/05/11 04:48:04;;;;;;;;;14.00;14.00;;;;;13.94;43.25;98982.47;5981278;29;96775;-60
2023/05/11 04:51:07;;;;;;;;;13.00;12.00;;;;;14.04;43.38;98971.81;5964319;29;96928;-60
2023/05/11 04:54:17;;;;;;;;;12.80;12.00;;;;;14.06;42.99;98975.13;5965546;29;96299;-61
2023/05/11 04:57:20;;;;;;;;;11.40;11.40;;;;;14.05;42.82;98952.63;5996188;29;96382;-60
2023/05/11 05:00:24;;;;;;;;;11.00;10.60;;;;;14.21;42.72;98988.97;5987226;29;96484;-60
2023/05/11 05:03:27;;;;;;;;;13.20;12.00;;;;;14.20;42.97;98984.63;6000569;29;96275;-60
2023/05/11 05:06:31;;;;;;;;;14.00;13.00;;;;;14.28;42.92;98990.47;5990257;29;96323;-60
2023/05/11 05:09:36;;;;;;;;;11.00;11.00;;;;;14.42;42.97;98982.06;5993513;29;96330;-61
2023/05/11 05:12:40;;;;;;;;;14.00;13.00;;;;;14.30;42.28;98990.22;5980525;29;96647;-60
2023/05/11 05:15:45;;;;;;;;;10.00;9.00;;;;;14.18;42.30;98982.13;6007615;29;96473;-60
2023/05/11 05:18:48;;;;;;;;;12.50;11.50;;;;;14.29;42.72;99000.25;5959960;29;96711;-60
2023/05/11 05:21:51;;;;;;;;;15.00;14.00;;;;;14.44;42.27;98997.03;5967453;29;96130;-60
2023/05/11 05:24:56;;;;;;;;;11.75;11.00;;;;;14.63;41.91;99001.16;5984523;29;96215;-60
2023/05/11 05:28:00;;;;;;;;;11.50;11.00;;;;;14.72;41.70;99004.28;5968210;29;96308;-61
2023/05/11 05:31:03;;;;;;;;;12.25;12.00;;;;;14.63;41.95;99001.16;5970678;29;96790;-60
2023/05/11 05:34:07;;;;;;;;;13.40;12.40;;;;;14.84;41.82;99004.22;5969471;29;96740;-60
2023/05/11 05:37:12;;;;;;;;;12.25;11.75;;;;;15.07;42.11;98995.91;5982894;29;96231;-61
2023/05/11 05:40:17;;;;;;;;;10.00;9.20;;;;;15.30;41.86;98997.59;5956642;29;96777;-60
2023/05/11 05:43:24;;;;;;;;;12.50;12.50;;;;;15.41;41.12;99000.22;5975118;29;96266;-60
2023/05/11 05:46:28;;;;;;;;;12.00;11.00;;;;;15.46;40.88;98994.88;5973335;29;96814;-60
2023/05/11 05:49:32;;;;;;;;;12.25;12.00;;;;;15.76;40.98;98997.19;5955374;29;96293;-61
2023/05/11 05:52:35;;;;;;;;;12.00;11.00;;;;;15.87;40.89;98984.56;5976816;29;96426;-60
2023/05/11 05:55:40;;;;;;;;;10.50;10.50;;;;;16.12;40.67;99001.19;5984704;29;96293;-61
2023/05/11 05:58:44;;;;;;;;;13.00;11.60;;;;;16.24;40.55;98995.59;5981168;29;96433;-60
2023/05/11 06:01:49;;;;;;;;;10.00;9.00;;;;;16.47;39.81;99004.25;5973840;29;97643;-60
2023/05/11 06:04:53;;;;;;;;;13.00;13.00;;;;;16.63;39.75;99002.53;5968757;29;96327;-61
2023/05/11 06:07:56;;;;;;;;;12.25;12.25;;;;;16.74;39.85;99009.72;5983381;29;96652;-60
2023/05/11 06:11:15;;;;;;;;;11.00;11.00;;;;;16.81;39.47;99013.06;5973274;29;97242;-60
2023/05/11 06:14:19;;;;;;;;;13.40;13.00;;;;;16.65;39.02;98991.41;5967734;29;96709;-61
2023/05/11 06:17:22;;;;;;;;;11.60;11.40;;;;;16.95;38.98;99002.56;5983260;29;96394;-61
2023/05/11 06:20:26;;;;;;;;;10.20;10.20;;;;;17.04;39.52;99006.44;5968894;29;96333;-60
2023/05/11 06:23:29;;;;;;;;;13.00;11.20;;;;;17.21;39.21;99007.09;5968967;29;96274;-61
2023/05/11 06:26:35;;;;;;;;;12.00;11.50;;;;;17.30;38.81;99007.44;5970643;29;96318;-60
2023/05/11 06:29:38;;;;;;;;;12.40;11.00;;;;;17.44;38.97;99005.09;5946174;29;96342;-61
2023/05/11 06:32:42;;;;;;;;;12.00;11.00;;;;;17.60;38.56;99012.28;5962542;29;96285;-61
2023/05/11 06:35:47;;;;;;;;;12.50;11.50;;;;;17.70;38.35;99005.00;5978014;29;96402;-60
2023/05/11 06:38:51;;;;;;;;;12.00;11.00;;;;;17.99;38.83;99010.84;5982985;29;96385;-61
2023/05/11 06:41:56;;;;;;;;;12.80;12.40;;;;;18.22;37.99;99006.03;5968656;29;96977;-61
2023/05/11 06:45:05;;;;;;;;;12.50;11.50;;;;;18.30;37.92;99010.97;5958284;29;96622;-60
2023/05/11 06:48:09;;;;;;;;;13.40;13.40;;;;;18.39;37.98;99010.16;5946508;29;96263;-61
2023/05/11 06:51:12;;;;;;;;;11.50;10.00;;;;;18.50;37.18;99002.81;5963054;29;96303;-61
2023/05/11 06:54:17;;;;;;;;;11.00;10.60;;;;;18.32;36.91;98990.50;5962568;29;98020;-60
2023/05/11 06:57:23;;;;;;;;;12.00;11.00;;;;;18.48;38.30;99005.81;5983705;29;96267;-61
2023/05/11 07:00:26;;;;;;;;;11.50;10.00;;;;;18.82;38.07;99003.44;5984652;29;97607;-61
2023/05/11 07:03:30;;;;;;;;;10.00;9.60;;;;;18.96;36.88;99001.00;5982710;29;96748;-61
2023/05/11 07:06:33;;;;;;;;;10.80;10.00;;;;;18.81;36.82;98993.63;5983071;29;96301;-61
2023/05/11 07:09:36;;;;;;;;;11.20;11.20;;;;;18.93;37.34;99004.25;5982818;29;96844;-61
2023/05/11 07:12:43;;;;;;;;;12.00;11.20;;;;;19.29;37.11;98996.88;5966207;29;96319;-61
2023/05/11 07:15:46;;;;;;;;;11.00;10.00;;;;;19.63;36.79;98997.09;5958187;29;96253;-61
2023/05/11 07:18:49;;;;;;;;;11.00;10.40;;;;;20.00;36.06;99002.97;5970203;29;96516;-61
2023/05/11 07:21:54;;;;;;;;;10.00;9.00;;;;;20.35;35.20;98998.47;5972123;29;96855;-61
2023/05/11 07:24:57;;;;;;;;;10.00;10.00;;;;;20.43;35.13;99000.63;5966321;29;98312;-60
2023/05/11 07:28:02;;;;;;;;;11.40;11.00;;;;;20.54;35.06;98992.03;5996427;29;96351;-61
2023/05/11 07:31:06;;;;;;;;;9.00;8.00;;;;;20.58;33.60;98998.59;6006460;29;96262;-61
2023/05/11 07:34:09;;;;;;;;;10.40;9.40;;;;;20.79;34.09;98992.97;5994048;29;96902;-61
2023/05/11 07:37:13;;;;;;;;;10.80;10.40;;;;;20.87;34.34;98992.34;5983263;29;96368;-61
2023/05/11 07:40:16;;;;;;;;;9.20;8.80;;;;;21.17;35.04;98995.69;5984727;29;96318;-61
2023/05/11 07:43:21;;;;;;;;;11.60;10.60;;;;;21.37;32.76;98986.44;5984292;29;96417;-61
2023/05/11 07:46:24;;;;;;;;;10.20;9.20;;;;;21.74;33.25;98987.72;5954404;29;96371;-61
2023/05/11 07:49:28;;;;;;;;;7.00;7.00;;;;;22.03;33.43;98993.97;5961960;29;96255;-60
2023/05/11 07:52:45;;;;;;;;;10.20;9.00;;;;;22.26;32.24;98987.63;5976276;29;96764;-60
2023/05/11 07:55:48;;;;;;;;;10.00;9.20;;;;;22.35;31.16;98999.59;5984879;29;96301;-61
2023/05/11 07:58:53;;;;;;;;;9.00;8.00;;;;;22.70;31.91;98989.19;5987644;29;96284;-60
2023/05/11 08:01:57;;;;;;;;;7.80;7.00;;;;;22.99;31.84;98987.09;5986856;29;96334;-61
2023/05/11 08:05:00;;;;;;;;;10.00;9.00;;;;;23.25;31.63;98987.47;5950009;29;98612;-61
2023/05/11 08:08:04;;;;;;;;;8.67;8.67;;;;;23.35;30.64;98983.75;5963798;29;96491;-61
2023/05/11 08:11:09;;;;;;;;;8.40;7.80;;;;;23.24;30.72;98983.91;5984390;29;96575;-61
2023/05/11 08:14:13;;;;;;;;;10.60;9.00;;;;;23.41;31.90;98983.31;5985271;29;96406;-61
2023/05/11 08:17:16;;;;;;;;;9.00;9.00;;;;;23.69;31.49;98979.53;5984387;29;96232;-60
2023/05/11 08:20:20;;;;;;;;;9.60;8.00;;;;;23.93;30.85;98979.31;5984425;29;96407;-61
2023/05/11 08:23:23;;;;;;;;;6.00;6.00;;;;;24.20;30.11;98980.44;5984305;29;97579;-61
2023/05/11 08:26:27;;;;;;;;;8.00;8.00;;;;;24.49;30.52;98991.91;5983319;29;96447;-61
2023/05/11 08:29:31;;;;;;;;;8.00;7.80;;;;;24.81;30.28;98977.94;5982899;29;96462;-62
2023/05/11 08:32:35;;;;;;;;;9.00;8.00;;;;;24.90;28.67;98976.09;5979412;29;96749;-61
2023/05/11 08:35:58;;;;;;;;;8.00;7.00;;;;;25.02;29.94;98975.53;5981633;29;96330;-61
2023/05/11 08:39:01;;;;;;;;;8.20;8.20;;;;;25.33;29.23;98975.53;5974832;29;96558;-62
2023/05/11 08:42:06;;;;;;;;;7.25;7.25;;;;;25.64;28.86;98962.56;5968781;29;96763;-61
2023/05/11 08:45:12;;;;;;;;;9.00;9.00;;;;;25.93;28.73;98962.03;5969347;29;96382;-61
2023/05/11 08:48:17;;;;;;;;;9.00;8.00;;;;;26.10;27.84;98956.53;5969752;29;97280;-61
2023/05/11 08:51:20;;;;;;;;;7.60;7.20;;;;;26.33;27.54;98968.31;5985243;29;96224;-61
2023/05/11 08:54:23;;;;;;;;;6.00;5.80;;;;;26.59;27.63;98960.84;5984635;29;96317;-62
2023/05/11 08:57:30;;;;;;;;;6.60;6.00;;;;;26.78;26.70;98954.97;5986740;29;96285;-61
2023/05/11 09:00:36;;;;;;;;;6.75;6.75;;;;;26.84;26.50;98944.56;5986187;29;96371;-61
2023/05/11 09:03:41;;;;;;;;;5.75;5.25;;;;;26.93;26.38;98950.94;5986357;29;96308;-61
2023/05/11 09:06:44;;;;;;;;;6.00;6.00;;;;;27.05;26.10;98951.09;5982345;29;96679;-61
2023/05/11 09:09:48;;;;;;;;;6.00;5.00;;;;;27.30;25.63;98949.41;5985553;29;96270;-61
2023/05/11 09:12:51;;;;;;;;;6.00;5.00;;;;;27.45;25.38;98938.63;5984557;29;96149;-61
2023/05/11 09:15:56;;;;;;;;;7.00;7.00;;;;;27.18;23.58;98941.78;5981804;29;96461;-61
2023/05/11 09:19:01;;;;;;;;;5.50;5.50;;;;;27.09;24.00;98935.44;5990991;29;96408;-62
2023/05/11 09:22:06;;;;;;;;;6.00;6.00;;;;;26.85;25.58;98937.91;6008640;29;96271;-62
2023/05/11 09:25:12;;;;;;;;;6.20;5.80;;;;;26.97;25.27;98935.31;6020555;29;96345;-62
2023/05/11 09:28:17;;;;;;;;;7.00;5.60;;;;;27.30;24.68;98941.09;6023184;29;96330;-62
2023/05/11 09:31:37;;;;;;;;;7.00;7.00;;;;;27.18;23.38;98941.78;6021669;29;96285;-62
2023/05/11 09:34:40;;;;;;;;;6.25;6.25;;;;;27.43;25.01;98937.31;6006577;29;98427;-61
2023/05/11 09:37:57;;;;;;;;;5.60;4.00;;;;;27.50;24.12;98927.38;6022638;29;96969;-62
2023/05/11 09:41:02;;;;;;;;;7.40;5.60;;;;;27.51;23.18;98922.66;6022695;29;96937;-62
2023/05/11 09:44:10;;;;;;;;;6.00;5.40;;;;;27.65;24.69;98934.31;6021988;29;96299;-62
2023/05/11 09:47:16;;;;;;;;;4.40;4.00;;;;;27.54;24.40;98930.28;6021158;29;96912;-62
2023/05/11 09:50:19;;;;;;;;;4.00;4.00;;;;;27.63;23.73;98920.00;6021913;29;96296;-61
2023/05/11 09:53:41;;;;;;;;;6.00;5.00;;;;;27.64;22.46;98920.81;6021606;29;96248;-62
2023/05/11 09:56:47;;;;;;;;;3.00;3.00;;;;;27.43;23.50;98915.97;6005056;29;96725;-62
2023/05/11 09:59:51;;;;;;;;;6.00;5.00;;;;;27.89;23.71;98915.13;6021787;29;96790;-62
2023/05/11 10:03:04;;;;;;;;;3.60;3.60;;;;;28.35;22.22;98907.81;6021777;29;96259;-61
2023/05/11 10:06:08;;;;;;;;;4.00;3.75;;;;;28.02;21.21;98905.75;6022087;29;96297;-61
2023/05/11 10:09:12;;;;;;;;;4.50;4.00;;;;;27.64;20.10;98896.69;6021020;29;96309;-61
2023/05/11 10:12:15;;;;;;;;;2.75;2.75;;;;;27.14;20.47;98902.88;6021165;29;96405;-61
2023/05/11 10:15:20;;;;;;;;;3.00;3.00;;;;;26.92;21.03;98896.75;6021378;29;96342;-62
2023/05/11 10:18:25;;;;;;;;;2.40;2.40;;;;;26.56;20.90;98894.31;6021167;29;96413;-62
2023/05/11 10:21:29;;;;;;;;;4.00;4.00;;;;;26.44;21.46;98886.69;6021679;29;96287;-62
2023/05/11 10:24:33;;;;;;;;;4.00;4.00;;;;;26.12;21.42;98896.25;6021463;29;96344;-61
2023/05/11 10:27:37;;;;;;;;;3.20;3.20;;;;;26.07;21.23;98896.41;6023377;29;96400;-61
2023/05/11 10:30:41;;;;;;;;;5.00;5.00;;;;;26.29;21.84;98895.50;6022152;29;96365;-61
2023/05/11 10:33:47;;;;;;;;;4.75;4.00;;;;;25.68;21.78;98888.19;6022904;29;96315;-62
2023/05/11 10:36:52;;;;;;;;;3.00;3.00;;;;;26.37;22.93;98891.91;6024038;29;96523;-61
2023/05/11 10:39:57;;;;;;;;;3.00;3.00;;;;;26.42;21.66;98877.09;6022690;29;96299;-61
2023/05/11 10:43:20;;;;;;;;;5.00;4.00;;;;;26.44;21.59;98883.91;6023594;29;96271;-61
2023/05/11 10:46:46;;;;;;;;;3.00;3.00;;;;;26.69;21.36;98885.03;6023277;29;96301;-61
2023/05/11 10:50:07;;;;;;;;;4.40;4.40;;;;;27.16;22.17;98877.66;6022362;29;96209;-61
2023/05/11 10:53:32;;;;;;;;;4.00;3.60;;;;;27.02;20.18;98880.63;6021667;29;96301;-62
2023/05/11 10:56:49;;;;;;;;;4.00;3.00;;;;;26.67;20.70;98879.84;6023113;29;96326;-61
2023/05/11 11:00:29;;;;;;;;;3.00;3.00;;;;;26.74;20.79;98857.22;6023906;29;96353;-61
2023/05/11 11:03:33;;;;;;;;;5.00;4.00;;;;;26.61;21.00;98872.84;6021271;29;96776;-61
2023/05/11 11:06:39;;;;;;;;;4.00;4.00;;;;;26.72;20.04;98859.50;6020080;29;96248;-61
2023/05/11 11:09:58;;;;;;;;;4.00;4.00;;;;;26.87;21.02;98864.56;5999840;29;96237;-61
2023/05/11 11:13:03;;;;;;;;;3.80;3.80;;;;;26.28;20.96;98874.50;5999250;29;96881;-61
2023/05/11 11:16:09;;;;;;;;;5.00;4.00;;;;;26.52;21.33;98861.00;5996345;29;96827;-61
2023/05/11 11:19:40;;;;;;;;;3.40;3.00;;;;;26.98;21.27;98873.28;5998577;29;96885;-61
2023/05/11 11:22:49;;;;;;;;;3.00;3.00;;;;;26.57;20.06;98849.78;6010737;29;96355;-61
2023/05/11 11:25:53;;;;;;;;;5.00;5.00;;;;;26.26;20.74;98868.47;6017286;29;96422;-61
2023/05/11 11:29:12;;;;;;;;;4.00;3.40;;;;;26.19;20.94;98859.84;5988758;29;97250;-61
2023/05/11 11:32:26;;;;;;;;;3.60;3.60;;;;;26.43;20.92;98854.66;6027265;29;96302;-61
2023/05/11 11:35:46;;;;;;;;;4.00;4.00;;;;;26.35;21.06;98857.41;6011692;29;96304;-61
2023/05/11 11:39:00;;;;;;;;;4.00;4.00;;;;;26.22;21.15;98846.22;6009980;29;96404;-61
2023/05/11 11:42:05;;;;;;;;;4.00;4.00;;;;;26.30;19.97;98850.09;6009015;29;96481;-60
2023/05/11 11:45:29;;;;;;;;;2.60;2.60;;;;;26.32;21.68;98852.56;6026298;29;96410;-61
2023/05/11 11:48:35;;;;;;;;;4.00;4.00;;;;;26.73;20.99;98845.34;6010967;29;96697;-61
2023/05/11 11:51:39;;;;;;;;;4.25;4.00;;;;;26.89;20.53;98842.06;6020916;29;96356;-61
2023/05/11 11:54:45;;;;;;;;;4.00;4.00;;;;;27.39;21.05;98844.97;6006880;29;96867;-61
2023/05/11 11:57:50;;;;;;;;;4.40;4.40;;;;;27.38;20.80;98849.69;6022868;29;96273;-61
2023/05/11 12:00:53;;;;;;;;;4.60;4.00;;;;;27.19;20.64;98852.06;6025926;29;96396;-61
2023/05/11 12:04:38;;;;;;;;;3.40;3.40;;;;;26.90;20.83;98846.47;6026607;29;96623;-61
2023/05/11 12:07:43;;;;;;;;;3.40;3.40;;;;;27.24;20.41;98846.34;6026238;29;96727;-61
2023/05/11 12:10:54;;;;;;;;;4.00;4.00;;;;;27.60;21.42;98843.13;6026193;29;96361;-62
2023/05/11 12:13:59;;;;;;;;;3.40;3.00;;;;;27.87;20.09;98856.47;6009758;29;96710;-61
2023/05/11 12:17:04;;;;;;;;;3.60;3.60;;;;;27.47;19.54;98814.47;6025443;29;96241;-60
2023/05/11 12:20:12;;;;;;;;;3.60;3.60;;;;;27.73;20.00;98835.69;6026201;29;96462;-61
2023/05/11 12:23:16;;;;;;;;;4.60;4.60;;;;;27.66;19.50;98841.75;6025814;29;96310;-61
2023/05/11 12:26:21;;;;;;;;;2.25;2.25;;;;;27.36;19.83;98827.09;6008248;29;97028;-61
2023/05/11 12:29:25;;;;;;;;;4.00;3.00;;;;;27.45;20.87;98832.56;6011377;29;96317;-61
2023/05/11 12:32:30;;;;;;;;;4.00;4.00;;;;;27.29;21.39;98818.47;6015560;29;96653;-60
2023/05/11 12:35:34;;;;;;;;;3.40;3.00;;;;;27.16;20.83;98827.84;5972590;29;98417;-61
2023/05/11 12:38:43;;;;;;;;;5.00;4.50;;;;;26.71;20.42;98814.44;6018212;29;96337;-61
2023/05/11 12:41:50;;;;;;;;;5.00;3.60;;;;;26.57;20.07;98824.06;6017480;29;96805;-61
2023/05/11 12:44:54;;;;;;;;;4.00;3.00;;;;;26.46;20.73;98822.78;5999663;29;96593;-61
2023/05/11 12:47:58;;;;;;;;;3.50;3.00;;;;;26.42;21.15;98819.06;6022227;29;96885;-61
2023/05/11 12:51:01;;;;;;;;;3.50;3.50;;;;;26.11;20.69;98795.16;6025504;29;97434;-61
2023/05/11 12:54:05;;;;;;;;;5.50;5.50;;;;;26.43;20.49;98815.16;6025048;29;96408;-61
2023/05/11 12:57:24;;;;;;;;;4.00;4.00;;;;;26.60;21.34;98802.09;6024102;29;96332;-61
2023/05/11 13:00:27;;;;;;;;;3.00;3.00;;;;;26.83;21.02;98796.34;6021143;29;96524;-61
2023/05/11 13:03:32;;;;;;;;;3.00;3.00;;;;;27.19;20.80;98799.47;6010711;29;96328;-61
2023/05/11 13:06:36;;;;;;;;;2.00;2.00;;;;;27.41;20.39;98799.22;6021000;29;96421;-61
2023/05/11 13:09:40;;;;;;;;;3.00;3.00;;;;;27.50;20.38;98796.41;6023360;29;96735;-61
2023/05/11 13:12:51;;;;;;;;;3.60;3.00;;;;;27.17;20.04;98798.19;6022878;29;96885;-61
2023/05/11 13:15:55;;;;;;;;;4.00;3.00;;;;;27.35;20.30;98786.72;6021970;29;96727;-61
2023/05/11 13:19:00;;;;;;;;;2.20;2.20;;;;;27.55;20.11;98794.28;6023960;29;96299;-61
2023/05/11 13:22:04;;;;;;;;;2.00;2.00;;;;;27.49;19.94;98792.03;6025050;29;96227;-61
2023/05/11 13:25:08;;;;;;;;;5.00;5.00;;;;;27.21;20.61;98788.09;6024660;29;96730;-61
2023/05/11 13:28:14;;;;;;;;;4.20;3.80;;;;;26.61;20.36;98783.56;6024625;29;96076;-61
2023/05/11 13:31:18;;;;;;;;;4.00;4.00;;;;;26.66;21.17;98784.19;6024490;29;96671;-61
2023/05/11 13:34:21;;;;;;;;;4.00;3.75;;;;;26.23;21.28;98772.41;6022620;29;96538;-61
2023/05/11 13:37:24;;;;;;;;;2.60;2.00;;;;;25.49;22.03;98791.81;6023274;29;96100;-61
2023/05/11 13:40:28;;;;;;;;;3.00;3.00;;;;;25.56;21.91;98780.34;6025324;29;96366;-61
2023/05/11 13:43:32;;;;;;;;;3.00;3.00;;;;;26.05;22.42;98774.34;6002287;29;96362;-61
2023/05/11 13:46:36;;;;;;;;;4.00;3.00;;;;;26.22;22.01;98774.38;5998970;29;96275;-61
2023/05/11 13:49:40;;;;;;;;;2.80;2.80;;;;;25.94;21.94;98759.25;5999926;29;96240;-61
2023/05/11 13:52:43;;;;;;;;;5.00;4.00;;;;;26.12;21.60;98768.31;5999553;29;96944;-61
2023/05/11 13:55:46;;;;;;;;;5.00;5.00;;;;;26.01;22.08;98781.66;6000621;29;96271;-60
2023/05/11 13:58:51;;;;;;;;;4.00;4.00;;;;;25.34;21.91;98771.00;6001233;29;96433;-61
2023/05/11 14:01:54;;;;;;;;;5.00;5.00;;;;;25.25;22.14;98783.16;6000668;29;96308;-61
2023/05/11 14:04:58;;;;;;;;;3.00;3.00;;;;;25.03;22.27;98765.56;5999456;29;96389;-61
2023/05/11 14:08:01;;;;;;;;;4.00;3.50;;;;;24.84;22.55;98772.41;6001811;29;96292;-61
2023/05/11 14:11:05;;;;;;;;;3.40;3.40;;;;;24.95;22.82;98768.28;6001270;29;96880;-61
2023/05/11 14:14:09;;;;;;;;;4.00;3.00;;;;;24.43;22.60;98773.53;5999894;29;96421;-61
2023/05/11 14:17:13;;;;;;;;;4.00;4.00;;;;;24.94;22.06;98772.16;6002195;29;96287;-62
2023/05/11 14:20:16;;;;;;;;;3.50;3.50;;;;;24.85;21.92;98758.31;5982177;29;99007;-61
2023/05/11 14:23:20;;;;;;;;;3.00;3.00;;;;;24.77;22.52;98769.31;5999548;29;97000;-61
2023/05/11 14:26:23;;;;;;;;;3.60;3.00;;;;;25.01;22.35;98758.75;6001622;29;96359;-61